Time;durP1;ratioP1;P1;durP2;ratioP2;P2;SDS_P1;SDS_P2;PMS_P1;PMS_P2;Temp;Humidity;BMP_temperature;BMP_pressure;BME280_temperature;BME280_humidity;BME280_pressure;Samples;Min_cycle;Max_cycle;Signal;HPM_P1;HPM_P2
2021/06/19 04:48:57;;;;;;;28.57;3.23;;;19.60;99.90;;;;;;6128733;23;20469;-82
2021/06/19 04:51:27;;;;;;;29.10;3.53;;;19.70;99.90;;;;;;6135933;23;20418;-83
2021/06/19 04:53:54;;;;;;;31.17;3.70;;;19.80;99.90;;;;;;6126511;23;20411;-82
2021/06/19 04:56:21;;;;;;;32.23;3.47;;;19.90;99.90;;;;;;6126093;23;20446;-82
2021/06/19 04:58:48;;;;;;;30.83;3.27;;;20.00;99.90;;;;;;6125704;23;20491;-82
2021/06/19 05:01:21;;;;;;;31.00;3.20;;;20.00;99.90;;;;;;6124544;23;20940;-82
2021/06/19 05:03:48;;;;;;;29.97;3.10;;;20.10;99.90;;;;;;6135993;23;20411;-82
2021/06/19 05:06:16;;;;;;;35.00;3.47;;;20.20;99.90;;;;;;6135985;23;20407;-81
2021/06/19 05:08:46;;;;;;;31.50;3.50;;;20.10;99.90;;;;;;6136032;23;20473;-82
2021/06/19 05:11:19;;;;;;;31.67;3.37;;;20.30;99.90;;;;;;6126321;23;20403;-82
2021/06/19 05:16:37;;;;;;;33.97;2.93;;;20.50;99.90;;;;;;6134594;23;20438;-81
2021/06/19 05:19:06;;;;;;;39.90;4.07;;;20.80;99.90;;;;;;6136130;23;20503;-82
2021/06/19 05:21:49;;;;;;;45.57;4.80;;;21.20;96.80;;;;;;6135995;23;20410;-82
2021/06/19 05:24:17;;;;;;;50.67;5.20;;;21.80;84.10;;;;;;6126263;23;20485;-83
2021/06/19 05:26:54;;;;;;;54.87;10.87;;;22.30;63.90;;;;;;6136604;23;20474;-81
2021/06/19 05:29:25;;;;;;;60.37;17.67;;;22.60;61.30;;;;;;6126191;23;20444;-82
2021/06/19 05:31:59;;;;;;;66.80;30.60;;;22.90;50.00;;;;;;6134603;23;20421;-82
2021/06/19 05:34:40;;;;;;;75.30;53.73;;;23.40;47.50;;;;;;6126498;23;20896;-83
2021/06/19 05:37:42;;;;;;;82.83;55.57;;;23.60;41.20;;;;;;6126249;23;20797;-84
2021/06/19 05:40:19;;;;;;;77.87;50.80;;;23.70;38.80;;;;;;6117462;23;20469;-84
2021/06/19 05:43:02;;;;;;;74.90;34.23;;;23.80;38.80;;;;;;6126866;23;20409;-86
2021/06/19 08:46:53;;;;;;;264.73;248.83;;;29.60;1.00;;;;;;5654910;24;20167;-82
2021/06/19 08:49:38;;;;;;;264.97;249.27;;;30.00;1.00;;;;;;5911224;24;20223;-82
2021/06/19 08:52:55;;;;;;;270.20;254.43;;;30.10;1.00;;;;;;6045514;23;20472;-84
2021/06/19 08:59:58;;;;;;;252.27;237.00;;;30.10;1.00;;;;;;5806551;24;21063;-82
2021/06/19 09:03:01;;;;;;;258.43;242.87;;;29.90;1.00;;;;;;5817071;24;20489;-85
2021/06/19 09:16:01;;;;;;;250.63;234.80;;;29.80;1.00;;;;;;5593287;24;20995;-81
2021/06/19 09:44:14;;;;;;;157.70;143.70;;;32.40;1.00;;;;;;5775467;24;20229;-81
2021/06/19 09:47:29;;;;;;;149.43;137.20;;;32.30;1.00;;;;;;5897734;24;20396;-81
2021/06/19 13:42:16;;;;;;;;;;;;;;;;;;;;;
2021/06/19 15:01:54;;;;;;;101.33;85.60;;;33.70;1.00;;;;;;6066947;23;20767;-83
2021/06/19 15:04:21;;;;;;;96.23;79.43;;;33.30;1.00;;;;;;6069391;23;20404;-83
2021/06/19 15:06:48;;;;;;;106.90;94.70;;;33.50;1.00;;;;;;6069348;23;20432;-85
2021/06/19 15:09:15;;;;;;;95.60;83.50;;;33.50;1.00;;;;;;6069396;23;20412;-84
2021/06/19 15:11:42;;;;;;;94.67;73.97;;;32.90;1.00;;;;;;6079052;23;20443;-83
2021/06/19 15:14:09;;;;;;;95.00;69.10;;;32.60;1.00;;;;;;6069348;23;20405;-84
2021/06/19 15:16:36;;;;;;;102.90;79.57;;;31.70;1.00;;;;;;6077547;23;20403;-83
2021/06/19 15:19:05;;;;;;;92.77;69.70;;;31.00;1.00;;;;;;6078478;23;20462;-85
2021/06/19 15:21:34;;;;;;;88.47;50.87;;;31.40;1.00;;;;;;6078422;23;21026;-85
2021/06/19 15:24:03;;;;;;;128.47;116.67;;;31.90;1.00;;;;;;6069271;23;20917;-84
2021/06/19 15:26:38;;;;;;;90.27;70.17;;;32.30;1.00;;;;;;6069530;23;20412;-87
2021/06/19 15:29:05;;;;;;;89.27;64.90;;;32.90;1.00;;;;;;6078398;23;20475;-82
2021/06/19 15:31:38;;;;;;;88.73;60.30;;;33.20;1.00;;;;;;6067485;23;20436;-84
2021/06/19 15:34:06;;;;;;;91.00;67.63;;;32.50;1.00;;;;;;6078992;23;20408;-84
2021/06/19 15:36:33;;;;;;;95.67;68.43;;;32.30;1.00;;;;;;6078100;23;20807;-84
2021/06/19 15:39:00;;;;;;;98.50;79.83;;;31.80;1.00;;;;;;6068594;23;20462;-83
2021/06/19 15:41:27;;;;;;;134.87;122.50;;;31.60;1.00;;;;;;6068842;23;20409;-84
2021/06/19 15:43:54;;;;;;;173.07;159.57;;;31.00;1.00;;;;;;6068976;23;20759;-86
2021/06/19 15:46:20;;;;;;;187.67;173.77;;;30.50;1.00;;;;;;6067649;23;20462;-87
2021/06/19 15:48:47;;;;;;;207.27;192.80;;;29.90;1.00;;;;;;6068735;23;20948;-83
2021/06/19 15:51:15;;;;;;;233.67;218.80;;;29.40;1.00;;;;;;6068308;23;20468;-83
2021/06/19 15:53:42;;;;;;;188.37;174.67;;;29.30;1.00;;;;;;6068350;23;20404;-80
2021/06/19 15:56:09;;;;;;;196.23;182.03;;;29.20;1.00;;;;;;6068033;23;20386;-83
2021/06/19 15:58:36;;;;;;;162.20;149.30;;;29.10;1.00;;;;;;6077980;23;20495;-83
2021/06/19 16:01:03;;;;;;;115.67;104.00;;;28.90;1.00;;;;;;6066273;23;20535;-80
2021/06/19 16:03:30;;;;;;;114.00;102.63;;;29.00;1.00;;;;;;6068375;23;20383;-80
2021/06/19 16:05:57;;;;;;;126.80;115.17;;;29.10;1.00;;;;;;6068962;23;20387;-83
2021/06/19 16:08:25;;;;;;;97.87;87.50;;;29.20;1.00;;;;;;6068110;23;20470;-81
2021/06/19 16:10:52;;;;;;;110.30;99.17;;;29.10;1.00;;;;;;6068410;23;20418;-83
2021/06/19 16:13:18;;;;;;;87.87;63.70;;;29.00;2.40;;;;;;6068666;23;20385;-83
2021/06/19 16:15:45;;;;;;;99.50;85.80;;;28.90;3.00;;;;;;6067356;23;20492;-83
2021/06/19 16:18:12;;;;;;;88.13;58.27;;;28.70;2.30;;;;;;6078159;23;20387;-82
2021/06/19 16:20:39;;;;;;;84.57;65.07;;;28.50;3.50;;;;;;6068220;23;20975;-79
2021/06/19 16:23:05;;;;;;;107.13;96.00;;;28.50;3.30;;;;;;6068695;23;20371;-79
2021/06/19 16:25:34;;;;;;;87.87;72.00;;;28.60;2.80;;;;;;6068283;23;20914;-82
2021/06/19 16:28:00;;;;;;;81.47;53.73;;;28.70;4.20;;;;;;6078652;23;20407;-83
2021/06/19 16:30:27;;;;;;;84.90;66.30;;;29.10;3.90;;;;;;6068587;23;20435;-79
2021/06/19 16:32:54;;;;;;;90.77;80.80;;;29.20;2.60;;;;;;6067177;23;20409;-81
2021/06/19 16:35:21;;;;;;;84.27;58.50;;;29.40;1.70;;;;;;6068616;23;20791;-83
2021/06/19 16:37:48;;;;;;;83.77;56.07;;;29.80;1.00;;;;;;6068171;23;20379;-84
2021/06/19 16:40:18;;;;;;;87.10;52.23;;;30.20;1.00;;;;;;6068426;23;20943;-82
2021/06/19 16:42:46;;;;;;;85.20;59.83;;;30.30;1.00;;;;;;6068658;23;20372;-82
2021/06/19 16:45:14;;;;;;;101.63;90.67;;;29.90;1.00;;;;;;6069287;23;20400;-83
2021/06/19 16:47:41;;;;;;;83.20;52.23;;;29.60;1.00;;;;;;6076375;23;20404;-83
2021/06/19 16:50:09;;;;;;;82.07;53.13;;;29.40;1.00;;;;;;6068475;23;20460;-83
2021/06/19 16:52:35;;;;;;;81.77;52.60;;;29.30;1.00;;;;;;6068082;23;20404;-81
2021/06/19 16:55:02;;;;;;;82.30;56.10;;;29.70;1.00;;;;;;6068435;23;20438;-82
2021/06/19 16:57:29;;;;;;;95.23;80.30;;;30.50;1.00;;;;;;6068243;23;20386;-82
2021/06/19 16:59:58;;;;;;;99.27;88.23;;;31.00;1.00;;;;;;6068064;23;20492;-83
2021/06/19 17:02:24;;;;;;;89.60;75.70;;;31.00;1.00;;;;;;6067098;23;20791;-82
2021/06/19 17:04:54;;;;;;;99.87;89.43;;;31.20;1.00;;;;;;6067856;23;20411;-87
2021/06/19 17:07:21;;;;;;;94.20;77.77;;;31.40;1.00;;;;;;6067856;23;20491;-83
2021/06/19 17:09:48;;;;;;;103.33;92.37;;;31.60;1.00;;;;;;6068225;23;20456;-84
2021/06/19 17:12:14;;;;;;;165.70;152.63;;;31.80;1.00;;;;;;6068096;23;20458;-81
2021/06/19 17:14:41;;;;;;;174.33;160.90;;;31.60;1.00;;;;;;6067846;23;20466;-83
2021/06/19 17:17:09;;;;;;;163.83;150.47;;;31.80;1.00;;;;;;6066835;23;20489;-81
2021/06/19 17:19:36;;;;;;;227.40;212.17;;;31.20;1.00;;;;;;6077088;23;20436;-83
2021/06/19 17:22:04;;;;;;;101.87;89.73;;;30.70;1.00;;;;;;6077506;23;20436;-83
2021/06/19 17:24:31;;;;;;;95.80;80.97;;;30.60;1.00;;;;;;6067929;23;20458;-80
2021/06/19 17:26:58;;;;;;;90.17;61.13;;;30.40;1.00;;;;;;6068154;23;20406;-83
2021/06/19 17:29:24;;;;;;;119.87;108.10;;;30.20;1.00;;;;;;6077295;23;20390;-81
2021/06/19 17:31:51;;;;;;;84.80;58.30;;;29.60;1.00;;;;;;6066079;23;20443;-82
2021/06/19 17:34:19;;;;;;;83.57;53.07;;;29.40;1.00;;;;;;6067874;23;20386;-81
2021/06/19 17:36:46;;;;;;;82.47;54.37;;;29.00;1.00;;;;;;6068352;23;20454;-83
2021/06/19 17:39:13;;;;;;;90.70;60.20;;;29.30;1.00;;;;;;6067843;23;20465;-84
2021/06/19 17:41:40;;;;;;;81.97;55.37;;;29.60;1.00;;;;;;6068034;23;20712;-81
2021/06/19 17:44:07;;;;;;;86.60;54.30;;;29.50;1.00;;;;;;6068168;23;20380;-82
2021/06/19 17:46:33;;;;;;;79.10;48.00;;;29.30;1.00;;;;;;6075457;23;20759;-81
2021/06/19 17:49:00;;;;;;;80.17;52.10;;;29.30;1.00;;;;;;6067534;23;20385;-83
2021/06/19 17:51:29;;;;;;;81.27;51.90;;;28.80;1.00;;;;;;6067882;23;20458;-85
2021/06/19 17:53:56;;;;;;;82.63;55.07;;;29.20;1.00;;;;;;6068478;23;20436;-82
2021/06/19 17:56:22;;;;;;;80.17;49.77;;;29.40;1.00;;;;;;6078683;23;20803;-84
2021/06/19 17:58:49;;;;;;;84.33;54.80;;;29.60;1.00;;;;;;6070094;23;20487;-82
2021/06/19 18:01:16;;;;;;;82.77;54.50;;;29.90;1.00;;;;;;6067780;23;20449;-82
2021/06/19 18:03:44;;;;;;;83.07;55.30;;;29.50;1.00;;;;;;6069558;23;20859;-86
2021/06/19 18:06:11;;;;;;;81.57;57.70;;;29.20;1.00;;;;;;6069682;23;20379;-84
2021/06/19 18:08:39;;;;;;;81.57;54.37;;;29.10;1.10;;;;;;6069926;23;20462;-82
2021/06/19 18:11:06;;;;;;;81.77;56.83;;;29.10;1.80;;;;;;6069502;23;20409;-85
2021/06/19 18:13:34;;;;;;;81.70;56.40;;;28.70;2.30;;;;;;6069597;23;20495;-84
2021/06/19 18:16:01;;;;;;;86.10;66.33;;;28.50;3.90;;;;;;6067927;23;20408;-84
2021/06/19 18:18:29;;;;;;;83.60;52.80;;;28.30;6.00;;;;;;6069267;23;20466;-82
2021/06/19 18:20:57;;;;;;;82.60;60.23;;;28.10;6.60;;;;;;6069730;23;20426;-82
2021/06/19 18:23:24;;;;;;;85.30;61.60;;;27.90;8.20;;;;;;6065408;23;20383;-84
2021/06/19 18:25:52;;;;;;;84.27;62.73;;;27.90;9.70;;;;;;6068147;23;20479;-84
2021/06/19 18:28:20;;;;;;;85.13;67.10;;;27.50;9.50;;;;;;6067037;23;20408;-85
2021/06/19 18:30:47;;;;;;;88.97;71.77;;;27.30;13.00;;;;;;6066399;23;20507;-84
2021/06/19 18:33:15;;;;;;;84.83;69.50;;;27.10;14.60;;;;;;6067106;23;21029;-82
2021/06/19 18:35:42;;;;;;;84.17;66.20;;;26.80;14.90;;;;;;6068724;23;20404;-83
2021/06/19 18:38:08;;;;;;;89.57;76.37;;;26.50;16.60;;;;;;6069231;23;20941;-81
2021/06/19 18:40:35;;;;;;;86.97;73.03;;;26.30;20.70;;;;;;6069376;23;20412;-81
2021/06/19 18:43:03;;;;;;;150.40;138.03;;;26.10;22.60;;;;;;6069556;23;20496;-80
2021/06/19 18:45:30;;;;;;;108.30;97.70;;;25.80;27.70;;;;;;6068635;23;20411;-79
2021/06/19 18:47:57;;;;;;;95.70;85.60;;;25.40;35.10;;;;;;6077182;23;20397;-78
2021/06/19 18:50:24;;;;;;;135.90;124.03;;;25.20;40.10;;;;;;6069285;23;20411;-78
2021/06/19 18:52:51;;;;;;;126.07;114.03;;;25.10;47.70;;;;;;6069485;23;20744;-78
2021/06/19 18:55:18;;;;;;;106.40;96.00;;;24.80;52.90;;;;;;6068661;23;20404;-78
2021/06/19 18:57:48;;;;;;;143.77;131.70;;;24.70;58.00;;;;;;6069275;23;20379;-78
2021/06/19 19:00:19;;;;;;;82.80;50.60;;;24.60;66.00;;;;;;6069243;23;20448;-78
2021/06/19 19:02:46;;;;;;;88.27;51.43;;;24.40;67.80;;;;;;6067976;23;20407;-79
2021/06/19 19:05:14;;;;;;;89.40;76.10;;;24.30;74.00;;;;;;6068811;23;20972;-79
2021/06/19 19:07:41;;;;;;;93.27;80.40;;;24.20;72.70;;;;;;6069382;23;20458;-78
2021/06/19 19:10:09;;;;;;;79.30;45.67;;;24.20;68.50;;;;;;6069251;23;20407;-79
2021/06/19 19:12:36;;;;;;;81.47;38.83;;;24.20;65.40;;;;;;6069309;23;20436;-79
2021/06/19 19:15:07;;;;;;;81.10;43.20;;;24.20;68.40;;;;;;6068949;23;20884;-79
2021/06/19 19:17:35;;;;;;;80.90;46.73;;;24.10;73.80;;;;;;6067953;23;20432;-79
2021/06/19 19:20:02;;;;;;;95.87;85.67;;;24.10;73.80;;;;;;6068707;23;20432;-81
2021/06/19 19:22:29;;;;;;;104.70;94.00;;;24.00;76.60;;;;;;6068420;23;20918;-80
2021/06/19 19:24:56;;;;;;;80.73;47.63;;;24.00;79.20;;;;;;6069356;23;20409;-80
2021/06/19 19:27:23;;;;;;;77.67;44.93;;;23.90;83.90;;;;;;6078305;23;20416;-81
2021/06/19 19:29:50;;;;;;;75.63;35.37;;;23.80;83.40;;;;;;6068938;23;20517;-81
2021/06/19 19:32:19;;;;;;;84.53;65.00;;;23.70;81.50;;;;;;6067739;23;20411;-82
2021/06/19 19:34:48;;;;;;;72.80;24.83;;;23.90;79.80;;;;;;6069079;23;20405;-80
2021/06/19 19:37:15;;;;;;;76.57;25.10;;;23.90;79.00;;;;;;6068746;23;20493;-81
2021/06/19 19:39:44;;;;;;;73.50;26.87;;;23.90;79.40;;;;;;6068995;23;20460;-80
2021/06/19 19:42:12;;;;;;;73.43;25.90;;;23.80;82.40;;;;;;6069137;23;20424;-78
2021/06/19 19:44:42;;;;;;;75.40;30.97;;;23.70;88.00;;;;;;6068995;23;20405;-78
2021/06/19 19:47:09;;;;;;;78.13;51.63;;;23.70;89.40;;;;;;6065984;23;20405;-78
2021/06/19 19:49:38;;;;;;;85.53;63.60;;;23.70;89.40;;;;;;6068264;23;20380;-78
2021/06/19 19:52:07;;;;;;;72.50;30.90;;;23.70;89.80;;;;;;6068652;23;20766;-79
2021/06/19 19:54:34;;;;;;;71.60;30.70;;;23.80;81.50;;;;;;6068708;23;20407;-78
2021/06/19 19:57:01;;;;;;;73.37;33.43;;;23.80;73.60;;;;;;6077919;23;20907;-76
2021/06/19 19:59:27;;;;;;;69.90;29.53;;;23.80;73.60;;;;;;6067943;23;20911;-79
2021/06/19 20:01:55;;;;;;;71.37;31.23;;;23.70;71.30;;;;;;6066694;23;20510;-79
2021/06/19 20:04:22;;;;;;;68.70;22.70;;;23.80;50.90;;;;;;6068829;23;20404;-80
2021/06/19 20:06:50;;;;;;;70.47;27.83;;;23.90;46.30;;;;;;6077315;23;20383;-80
2021/06/19 20:09:18;;;;;;;69.53;18.97;;;24.10;37.40;;;;;;6067322;23;20413;-79
2021/06/19 20:11:45;;;;;;;67.37;19.80;;;23.90;32.00;;;;;;6067461;23;20523;-80
2021/06/19 20:14:12;;;;;;;74.30;32.77;;;24.20;29.20;;;;;;6067914;23;20405;-81
2021/06/19 20:16:38;;;;;;;75.37;44.27;;;24.30;27.10;;;;;;6066126;23;20411;-80
2021/06/19 20:19:05;;;;;;;73.67;41.77;;;24.20;25.20;;;;;;6067876;23;20430;-81
2021/06/19 20:21:36;;;;;;;70.03;30.00;;;24.40;24.60;;;;;;6076630;23;20496;-78
2021/06/19 20:24:03;;;;;;;69.40;24.80;;;24.40;24.20;;;;;;6077401;23;20483;-81
2021/06/19 20:26:31;;;;;;;68.60;20.93;;;24.40;25.30;;;;;;6067202;23;20405;-81
2021/06/19 20:28:57;;;;;;;68.10;20.50;;;24.40;22.90;;;;;;6067895;23;20494;-78
2021/06/19 20:31:24;;;;;;;67.47;19.87;;;24.50;21.10;;;;;;6065379;23;20920;-79
2021/06/19 20:33:51;;;;;;;68.57;21.67;;;24.70;19.40;;;;;;6067416;23;20407;-79
2021/06/19 20:36:18;;;;;;;71.87;31.03;;;24.60;19.40;;;;;;6067920;23;20411;-81
2021/06/19 20:38:45;;;;;;;71.00;30.73;;;24.80;17.60;;;;;;6067499;23;20483;-79
2021/06/19 20:41:12;;;;;;;73.70;37.30;;;24.90;16.10;;;;;;6067776;23;20438;-79
2021/06/19 20:43:40;;;;;;;77.60;46.97;;;24.80;15.70;;;;;;6067066;23;20400;-78
2021/06/19 20:46:07;;;;;;;80.03;56.67;;;24.90;15.80;;;;;;6065989;23;20479;-77
2021/06/19 20:48:34;;;;;;;76.87;47.73;;;24.90;15.70;;;;;;6067397;23;20384;-78
2021/06/19 20:51:02;;;;;;;79.67;51.73;;;24.90;15.00;;;;;;6067045;23;20415;-76
2021/06/19 21:22:20;;;;;;;68.07;24.97;;;23.00;86.20;;;;;;6097369;23;20903;-83
2021/06/19 21:24:51;;;;;;;69.73;38.63;;;22.70;95.40;;;;;;6108490;23;20507;-94
